<?xml version="1.0" encoding="UTF-8" standalone="no" ?>
<gpx xmlns="http://www.topografix.com/GPX/1/1" xmlns:xsi="http://www.w3.org/2001/XMLSchema-instance" xsi:schemaLocation="http://www.topografix.com/GPX/1/1 http://www.topografix.com/GPX/1/1/gpx.xsd" version="1.1" creator="VisuGPX - https://www.visugpx.com">
  <metadata>
    <name>Rando LN</name>
  </metadata>
  <trk>
    <name><![CDATA[Espalion]]></name>
    <extensions>
      <line xmlns="http://www.topografix.com/GPX/gpx_style/0/2">
        <color>00ff08</color>
        <width>4</width>
      </line>
    </extensions>
    <trkseg>
      <trkpt lat="44.55222" lon="2.67285">
        <ele>329.967</ele>
        <time>2015-08-05T17:27:07Z</time>
      </trkpt>
      <trkpt lat="44.55222" lon="2.67285">
        <ele>329.967</ele>
        <time>2015-08-05T17:27:07Z</time>
      </trkpt>
      <trkpt lat="44.55222" lon="2.67285">
        <ele>329.967</ele>
        <time>2015-08-05T17:27:07Z</time>
      </trkpt>
      <trkpt lat="44.55222" lon="2.67285">
        <ele>329.967</ele>
        <time>2015-08-05T17:27:07Z</time>
      </trkpt>
      <trkpt lat="44.55232" lon="2.6723">
        <ele>321.449</ele>
        <time>2015-08-05T17:27:27Z</time>
      </trkpt>
      <trkpt lat="44.55245" lon="2.67225">
        <ele>318.14</ele>
        <time>2015-08-05T17:27:47Z</time>
      </trkpt>
      <trkpt lat="44.55243" lon="2.67363">
        <ele>322.726</ele>
        <time>2015-08-05T17:28:07Z</time>
      </trkpt>
      <trkpt lat="44.55197" lon="2.67442">
        <ele>334.688</ele>
        <time>2015-08-05T17:28:27Z</time>
      </trkpt>
      <trkpt lat="44.55132" lon="2.67515">
        <ele>335.175</ele>
        <time>2015-08-05T17:28:47Z</time>
      </trkpt>
      <trkpt lat="44.55097" lon="2.67603">
        <ele>334.628</ele>
        <time>2015-08-05T17:29:07Z</time>
      </trkpt>
      <trkpt lat="44.55081" lon="2.67676">
        <ele>333.42</ele>
        <time>2015-08-05T17:29:27Z</time>
      </trkpt>
      <trkpt lat="44.55017" lon="2.67769">
        <ele>329.108</ele>
        <time>2015-08-05T17:29:47Z</time>
      </trkpt>
      <trkpt lat="44.54912" lon="2.67869">
        <ele>333.663</ele>
        <time>2015-08-05T17:30:07Z</time>
      </trkpt>
      <trkpt lat="44.54874" lon="2.67956">
        <ele>334.468</ele>
        <time>2015-08-05T17:30:27Z</time>
      </trkpt>
      <trkpt lat="44.54865" lon="2.68002">
        <ele>331.248</ele>
        <time>2015-08-05T17:30:47Z</time>
      </trkpt>
      <trkpt lat="44.54847" lon="2.68039">
        <ele>340.47</ele>
        <time>2015-08-05T17:31:07Z</time>
      </trkpt>
      <trkpt lat="44.54838" lon="2.68129">
        <ele>351.722</ele>
        <time>2015-08-05T17:31:27Z</time>
      </trkpt>
      <trkpt lat="44.5488" lon="2.68318">
        <ele>356.253</ele>
        <time>2015-08-05T17:31:47Z</time>
      </trkpt>
      <trkpt lat="44.54889" lon="2.68469">
        <ele>368.819</ele>
        <time>2015-08-05T17:32:07Z</time>
      </trkpt>
      <trkpt lat="44.54886" lon="2.68543">
        <ele>369.471</ele>
        <time>2015-08-05T17:32:27Z</time>
      </trkpt>
      <trkpt lat="44.54889" lon="2.68572">
        <ele>366.891</ele>
        <time>2015-08-05T17:32:47Z</time>
      </trkpt>
      <trkpt lat="44.54879" lon="2.68636">
        <ele>357.981</ele>
        <time>2015-08-05T17:33:07Z</time>
      </trkpt>
      <trkpt lat="44.54831" lon="2.6864">
        <ele>355.619</ele>
        <time>2015-08-05T17:33:27Z</time>
      </trkpt>
      <trkpt lat="44.54754" lon="2.6851">
        <ele>346.208</ele>
        <time>2015-08-05T17:33:47Z</time>
      </trkpt>
      <trkpt lat="44.54746" lon="2.68472">
        <ele>348.675</ele>
        <time>2015-08-05T17:34:07Z</time>
      </trkpt>
      <trkpt lat="44.54729" lon="2.68441">
        <ele>344.88</ele>
        <time>2015-08-05T17:34:27Z</time>
      </trkpt>
      <trkpt lat="44.54702" lon="2.68349">
        <ele>342.01</ele>
        <time>2015-08-05T17:34:47Z</time>
      </trkpt>
      <trkpt lat="44.54664" lon="2.68296">
        <ele>332.742</ele>
        <time>2015-08-05T17:35:07Z</time>
      </trkpt>
      <trkpt lat="44.5462" lon="2.6818">
        <ele>344.464</ele>
        <time>2015-08-05T17:35:27Z</time>
      </trkpt>
      <trkpt lat="44.54559" lon="2.68159">
        <ele>342.385</ele>
        <time>2015-08-05T17:35:47Z</time>
      </trkpt>
      <trkpt lat="44.54421" lon="2.68179">
        <ele>324.091</ele>
        <time>2015-08-05T17:36:07Z</time>
      </trkpt>
      <trkpt lat="44.54382" lon="2.68121">
        <ele>327.553</ele>
        <time>2015-08-05T17:36:27Z</time>
      </trkpt>
      <trkpt lat="44.54345" lon="2.68061">
        <ele>330.947</ele>
        <time>2015-08-05T17:36:47Z</time>
      </trkpt>
      <trkpt lat="44.5431" lon="2.6805">
        <ele>330.929</ele>
        <time>2015-08-05T17:37:07Z</time>
      </trkpt>
      <trkpt lat="44.54274" lon="2.68049">
        <ele>330.721</ele>
        <time>2015-08-05T17:37:27Z</time>
      </trkpt>
      <trkpt lat="44.54273" lon="2.68079">
        <ele>325.508</ele>
        <time>2015-08-05T17:37:47Z</time>
      </trkpt>
      <trkpt lat="44.54298" lon="2.68118">
        <ele>323.73</ele>
        <time>2015-08-05T17:38:07Z</time>
      </trkpt>
      <trkpt lat="44.54326" lon="2.68151">
        <ele>323.915</ele>
        <time>2015-08-05T17:38:27Z</time>
      </trkpt>
      <trkpt lat="44.54318" lon="2.68205">
        <ele>331.075</ele>
        <time>2015-08-05T17:38:47Z</time>
      </trkpt>
      <trkpt lat="44.54328" lon="2.68259">
        <ele>335.297</ele>
        <time>2015-08-05T17:39:07Z</time>
      </trkpt>
      <trkpt lat="44.5431" lon="2.68318">
        <ele>336.459</ele>
        <time>2015-08-05T17:39:27Z</time>
      </trkpt>
      <trkpt lat="44.54284" lon="2.68307">
        <ele>336.21</ele>
        <time>2015-08-05T17:39:47Z</time>
      </trkpt>
      <trkpt lat="44.54252" lon="2.68302">
        <ele>334.046</ele>
        <time>2015-08-05T17:40:07Z</time>
      </trkpt>
      <trkpt lat="44.54237" lon="2.68356">
        <ele>336.598</ele>
        <time>2015-08-05T17:40:27Z</time>
      </trkpt>
      <trkpt lat="44.54118" lon="2.68484">
        <ele>341.242</ele>
        <time>2015-08-05T17:40:47Z</time>
      </trkpt>
      <trkpt lat="44.54095" lon="2.68536">
        <ele>343.022</ele>
        <time>2015-08-05T17:41:07Z</time>
      </trkpt>
      <trkpt lat="44.54026" lon="2.68642">
        <ele>343.114</ele>
        <time>2015-08-05T17:41:27Z</time>
      </trkpt>
      <trkpt lat="44.53867" lon="2.6876">
        <ele>347.108</ele>
        <time>2015-08-05T17:41:47Z</time>
      </trkpt>
      <trkpt lat="44.5377" lon="2.6892">
        <ele>347.78</ele>
        <time>2015-08-05T17:42:07Z</time>
      </trkpt>
      <trkpt lat="44.5375" lon="2.68937">
        <ele>349.055</ele>
        <time>2015-08-05T17:42:27Z</time>
      </trkpt>
      <trkpt lat="44.53776" lon="2.68961">
        <ele>348.195</ele>
        <time>2015-08-05T17:42:47Z</time>
      </trkpt>
      <trkpt lat="44.5401" lon="2.69102">
        <ele>343.657</ele>
        <time>2015-08-05T17:43:07Z</time>
      </trkpt>
      <trkpt lat="44.54075" lon="2.69175">
        <ele>346.769</ele>
        <time>2015-08-05T17:43:27Z</time>
      </trkpt>
      <trkpt lat="44.54038" lon="2.69503">
        <ele>351.72</ele>
        <time>2015-08-05T17:43:47Z</time>
      </trkpt>
      <trkpt lat="44.53824" lon="2.70061">
        <ele>363.526</ele>
        <time>2015-08-05T17:44:07Z</time>
      </trkpt>
      <trkpt lat="44.53861" lon="2.70119">
        <ele>365.748</ele>
        <time>2015-08-05T17:44:27Z</time>
      </trkpt>
      <trkpt lat="44.53931" lon="2.70203">
        <ele>360.297</ele>
        <time>2015-08-05T17:44:47Z</time>
      </trkpt>
      <trkpt lat="44.53947" lon="2.70242">
        <ele>358.823</ele>
        <time>2015-08-05T17:45:07Z</time>
      </trkpt>
      <trkpt lat="44.53942" lon="2.70306">
        <ele>361.925</ele>
        <time>2015-08-05T17:45:27Z</time>
      </trkpt>
      <trkpt lat="44.53963" lon="2.70343">
        <ele>364.308</ele>
        <time>2015-08-05T17:45:47Z</time>
      </trkpt>
      <trkpt lat="44.54006" lon="2.70373">
        <ele>367.985</ele>
        <time>2015-08-05T17:46:07Z</time>
      </trkpt>
      <trkpt lat="44.54071" lon="2.70373">
        <ele>369.49</ele>
        <time>2015-08-05T17:46:27Z</time>
      </trkpt>
      <trkpt lat="44.54153" lon="2.70381">
        <ele>373.25</ele>
        <time>2015-08-05T17:46:47Z</time>
      </trkpt>
      <trkpt lat="44.54133" lon="2.70491">
        <ele>378.662</ele>
        <time>2015-08-05T17:47:07Z</time>
      </trkpt>
      <trkpt lat="44.54132" lon="2.70528">
        <ele>381.324</ele>
        <time>2015-08-05T17:47:27Z</time>
      </trkpt>
      <trkpt lat="44.54119" lon="2.70558">
        <ele>383.955</ele>
        <time>2015-08-05T17:47:47Z</time>
      </trkpt>
      <trkpt lat="44.54089" lon="2.70565">
        <ele>390.531</ele>
        <time>2015-08-05T17:48:07Z</time>
      </trkpt>
      <trkpt lat="44.54078" lon="2.70587">
        <ele>394.213</ele>
        <time>2015-08-05T17:48:27Z</time>
      </trkpt>
      <trkpt lat="44.5406" lon="2.70592">
        <ele>397.387</ele>
        <time>2015-08-05T17:48:47Z</time>
      </trkpt>
      <trkpt lat="44.54069" lon="2.70657">
        <ele>405.942</ele>
        <time>2015-08-05T17:49:07Z</time>
      </trkpt>
      <trkpt lat="44.54066" lon="2.70722">
        <ele>418.626</ele>
        <time>2015-08-05T17:49:27Z</time>
      </trkpt>
      <trkpt lat="44.54083" lon="2.70763">
        <ele>420.508</ele>
        <time>2015-08-05T17:49:47Z</time>
      </trkpt>
      <trkpt lat="44.54093" lon="2.7081">
        <ele>424.254</ele>
        <time>2015-08-05T17:50:07Z</time>
      </trkpt>
      <trkpt lat="44.54092" lon="2.70874">
        <ele>430.319</ele>
        <time>2015-08-05T17:50:27Z</time>
      </trkpt>
      <trkpt lat="44.54066" lon="2.70923">
        <ele>438.979</ele>
        <time>2015-08-05T17:50:47Z</time>
      </trkpt>
      <trkpt lat="44.54062" lon="2.70972">
        <ele>439.681</ele>
        <time>2015-08-05T17:51:07Z</time>
      </trkpt>
      <trkpt lat="44.54055" lon="2.70993">
        <ele>443.623</ele>
        <time>2015-08-05T17:51:27Z</time>
      </trkpt>
      <trkpt lat="44.54049" lon="2.70938">
        <ele>446.244</ele>
        <time>2015-08-05T17:51:47Z</time>
      </trkpt>
      <trkpt lat="44.54029" lon="2.70868">
        <ele>452.07</ele>
        <time>2015-08-05T17:52:07Z</time>
      </trkpt>
      <trkpt lat="44.54014" lon="2.70837">
        <ele>456.942</ele>
        <time>2015-08-05T17:52:27Z</time>
      </trkpt>
      <trkpt lat="44.53985" lon="2.70799">
        <ele>461.966</ele>
        <time>2015-08-05T17:52:47Z</time>
      </trkpt>
      <trkpt lat="44.53957" lon="2.70791">
        <ele>464.029</ele>
        <time>2015-08-05T17:53:07Z</time>
      </trkpt>
      <trkpt lat="44.53945" lon="2.70915">
        <ele>477.021</ele>
        <time>2015-08-05T17:53:27Z</time>
      </trkpt>
      <trkpt lat="44.53918" lon="2.70971">
        <ele>480.808</ele>
        <time>2015-08-05T17:53:47Z</time>
      </trkpt>
      <trkpt lat="44.53803" lon="2.71099">
        <ele>487.422</ele>
        <time>2015-08-05T17:54:07Z</time>
      </trkpt>
      <trkpt lat="44.53768" lon="2.71122">
        <ele>486.257</ele>
        <time>2015-08-05T17:54:27Z</time>
      </trkpt>
      <trkpt lat="44.53714" lon="2.7112">
        <ele>485.457</ele>
        <time>2015-08-05T17:54:47Z</time>
      </trkpt>
      <trkpt lat="44.5368" lon="2.71092">
        <ele>483.059</ele>
        <time>2015-08-05T17:55:07Z</time>
      </trkpt>
      <trkpt lat="44.53448" lon="2.71088">
        <ele>486.261</ele>
        <time>2015-08-05T17:55:27Z</time>
      </trkpt>
      <trkpt lat="44.5342" lon="2.71066">
        <ele>490.172</ele>
        <time>2015-08-05T17:55:47Z</time>
      </trkpt>
      <trkpt lat="44.53336" lon="2.7102">
        <ele>487.668</ele>
        <time>2015-08-05T17:56:07Z</time>
      </trkpt>
      <trkpt lat="44.53312" lon="2.70975">
        <ele>486.19</ele>
        <time>2015-08-05T17:56:27Z</time>
      </trkpt>
      <trkpt lat="44.53283" lon="2.70971">
        <ele>486.883</ele>
        <time>2015-08-05T17:56:47Z</time>
      </trkpt>
      <trkpt lat="44.5327" lon="2.71044">
        <ele>486.325</ele>
        <time>2015-08-05T17:57:07Z</time>
      </trkpt>
      <trkpt lat="44.53246" lon="2.71093">
        <ele>483.317</ele>
        <time>2015-08-05T17:57:27Z</time>
      </trkpt>
      <trkpt lat="44.53232" lon="2.7116">
        <ele>478.408</ele>
        <time>2015-08-05T17:57:47Z</time>
      </trkpt>
      <trkpt lat="44.53204" lon="2.71147">
        <ele>478.494</ele>
        <time>2015-08-05T17:58:07Z</time>
      </trkpt>
      <trkpt lat="44.53184" lon="2.71177">
        <ele>476.069</ele>
        <time>2015-08-05T17:58:27Z</time>
      </trkpt>
      <trkpt lat="44.53156" lon="2.7119">
        <ele>476.089</ele>
        <time>2015-08-05T17:58:47Z</time>
      </trkpt>
      <trkpt lat="44.53134" lon="2.71249">
        <ele>477.361</ele>
        <time>2015-08-05T17:59:07Z</time>
      </trkpt>
      <trkpt lat="44.53086" lon="2.71269">
        <ele>482.863</ele>
        <time>2015-08-05T17:59:27Z</time>
      </trkpt>
      <trkpt lat="44.53046" lon="2.71421">
        <ele>487.294</ele>
        <time>2015-08-05T17:59:47Z</time>
      </trkpt>
      <trkpt lat="44.53006" lon="2.71492">
        <ele>483.28</ele>
        <time>2015-08-05T18:00:07Z</time>
      </trkpt>
      <trkpt lat="44.52997" lon="2.71628">
        <ele>481.252</ele>
        <time>2015-08-05T18:00:27Z</time>
      </trkpt>
      <trkpt lat="44.5298" lon="2.71697">
        <ele>484.195</ele>
        <time>2015-08-05T18:00:47Z</time>
      </trkpt>
      <trkpt lat="44.52929" lon="2.71807">
        <ele>486.149</ele>
        <time>2015-08-05T18:01:07Z</time>
      </trkpt>
      <trkpt lat="44.52874" lon="2.7189">
        <ele>491.723</ele>
        <time>2015-08-05T18:01:27Z</time>
      </trkpt>
      <trkpt lat="44.52881" lon="2.7201">
        <ele>483.808</ele>
        <time>2015-08-05T18:01:47Z</time>
      </trkpt>
      <trkpt lat="44.529" lon="2.72062">
        <ele>484.755</ele>
        <time>2015-08-05T18:02:07Z</time>
      </trkpt>
      <trkpt lat="44.52911" lon="2.72152">
        <ele>488.56</ele>
        <time>2015-08-05T18:02:27Z</time>
      </trkpt>
      <trkpt lat="44.52935" lon="2.72184">
        <ele>484.11</ele>
        <time>2015-08-05T18:02:47Z</time>
      </trkpt>
      <trkpt lat="44.52951" lon="2.72232">
        <ele>484.372</ele>
        <time>2015-08-05T18:03:07Z</time>
      </trkpt>
      <trkpt lat="44.52934" lon="2.72348">
        <ele>478.974</ele>
        <time>2015-08-05T18:03:27Z</time>
      </trkpt>
      <trkpt lat="44.52933" lon="2.7238">
        <ele>480.715</ele>
        <time>2015-08-05T18:03:47Z</time>
      </trkpt>
      <trkpt lat="44.5288" lon="2.72501">
        <ele>452.421</ele>
        <time>2015-08-05T18:04:07Z</time>
      </trkpt>
      <trkpt lat="44.52871" lon="2.72541">
        <ele>446.663</ele>
        <time>2020-11-26T05:03:00Z</time>
      </trkpt>
      <trkpt lat="44.52852" lon="2.72562">
        <ele>440.448</ele>
        <time>2020-11-26T05:03:20Z</time>
      </trkpt>
      <trkpt lat="44.52821" lon="2.72541">
        <ele>435.761</ele>
        <time>2020-11-26T05:03:40Z</time>
      </trkpt>
      <trkpt lat="44.52831" lon="2.72597">
        <ele>431.717</ele>
        <time>2020-11-26T05:04:00Z</time>
      </trkpt>
      <trkpt lat="44.52874" lon="2.7263">
        <ele>427.108</ele>
        <time>2020-11-26T05:04:20Z</time>
      </trkpt>
      <trkpt lat="44.52834" lon="2.72708">
        <ele>414.58</ele>
        <time>2020-11-26T05:04:40Z</time>
      </trkpt>
      <trkpt lat="44.52793" lon="2.72747">
        <ele>407.665</ele>
        <time>2020-11-26T05:05:00Z</time>
      </trkpt>
      <trkpt lat="44.52789" lon="2.72771">
        <ele>404.075</ele>
        <time>2020-11-26T05:05:20Z</time>
      </trkpt>
      <trkpt lat="44.52778" lon="2.72703">
        <ele>406.147</ele>
        <time>2020-11-26T05:05:40Z</time>
      </trkpt>
      <trkpt lat="44.5277" lon="2.72769">
        <ele>399.989</ele>
        <time>2020-11-26T05:06:00Z</time>
      </trkpt>
      <trkpt lat="44.52783" lon="2.72808">
        <ele>395.05</ele>
        <time>2020-11-26T05:06:20Z</time>
      </trkpt>
      <trkpt lat="44.52841" lon="2.72807">
        <ele>392.416</ele>
        <time>2020-11-26T05:06:40Z</time>
      </trkpt>
      <trkpt lat="44.52913" lon="2.72774">
        <ele>382.568</ele>
        <time>2020-11-26T05:07:00Z</time>
      </trkpt>
      <trkpt lat="44.52967" lon="2.72797">
        <ele>374.894</ele>
        <time>2020-11-26T05:07:20Z</time>
      </trkpt>
      <trkpt lat="44.52984" lon="2.72835">
        <ele>367.357</ele>
        <time>2020-11-26T05:07:40Z</time>
      </trkpt>
      <trkpt lat="44.53015" lon="2.72808">
        <ele>374.822</ele>
        <time>2020-11-26T05:08:00Z</time>
      </trkpt>
      <trkpt lat="44.5306" lon="2.72824">
        <ele>368.608</ele>
        <time>2020-11-26T05:08:20Z</time>
      </trkpt>
      <trkpt lat="44.53115" lon="2.72794">
        <ele>366.725</ele>
        <time>2020-11-26T05:08:40Z</time>
      </trkpt>
      <trkpt lat="44.53115" lon="2.72807">
        <ele>361.61</ele>
        <time>2020-11-26T05:09:00Z</time>
      </trkpt>
      <trkpt lat="44.53066" lon="2.72861">
        <ele>353.34</ele>
        <time>2020-11-26T05:09:20Z</time>
      </trkpt>
      <trkpt lat="44.5302" lon="2.72982">
        <ele>336.392</ele>
        <time>2020-11-26T05:09:40Z</time>
      </trkpt>
      <trkpt lat="44.52942" lon="2.73079">
        <ele>330.384</ele>
        <time>2020-11-26T05:10:00Z</time>
      </trkpt>
      <trkpt lat="44.52838" lon="2.73072">
        <ele>331.425</ele>
        <time>2020-11-26T05:10:20Z</time>
      </trkpt>
      <trkpt lat="44.52832" lon="2.73043">
        <ele>332.991</ele>
        <time>2020-11-26T05:10:40Z</time>
      </trkpt>
      <trkpt lat="44.52757" lon="2.72972">
        <ele>335.853</ele>
        <time>2020-11-26T05:11:00Z</time>
      </trkpt>
      <trkpt lat="44.52731" lon="2.72914">
        <ele>343.561</ele>
        <time>2020-11-26T05:11:20Z</time>
      </trkpt>
      <trkpt lat="44.52684" lon="2.72897">
        <ele>339.321</ele>
        <time>2020-11-26T05:11:40Z</time>
      </trkpt>
      <trkpt lat="44.52636" lon="2.72831">
        <ele>338.013</ele>
        <time>2020-11-26T05:12:00Z</time>
      </trkpt>
      <trkpt lat="44.52597" lon="2.728">
        <ele>336.408</ele>
        <time>2020-11-26T05:12:20Z</time>
      </trkpt>
      <trkpt lat="44.52585" lon="2.72821">
        <ele>336.032</ele>
        <time>2015-08-05T18:10:27Z</time>
      </trkpt>
      <trkpt lat="44.52607" lon="2.72921">
        <ele>336.627</ele>
        <time>2015-08-05T18:10:47Z</time>
      </trkpt>
      <trkpt lat="44.52612" lon="2.72984">
        <ele>342.687</ele>
        <time>2015-08-05T18:11:07Z</time>
      </trkpt>
      <trkpt lat="44.52636" lon="2.73071">
        <ele>345.789</ele>
        <time>2015-08-05T18:11:27Z</time>
      </trkpt>
      <trkpt lat="44.52683" lon="2.7315">
        <ele>341.441</ele>
        <time>2015-08-05T18:11:47Z</time>
      </trkpt>
      <trkpt lat="44.52735" lon="2.73256">
        <ele>342.832</ele>
        <time>2015-08-05T18:12:07Z</time>
      </trkpt>
      <trkpt lat="44.5275" lon="2.73359">
        <ele>338.228</ele>
        <time>2015-08-05T18:12:27Z</time>
      </trkpt>
      <trkpt lat="44.52769" lon="2.73444">
        <ele>338.01</ele>
        <time>2015-08-05T18:12:47Z</time>
      </trkpt>
      <trkpt lat="44.52795" lon="2.73483">
        <ele>336.682</ele>
        <time>2015-08-05T18:13:07Z</time>
      </trkpt>
      <trkpt lat="44.52834" lon="2.73558">
        <ele>331.143</ele>
        <time>2015-08-05T18:13:27Z</time>
      </trkpt>
      <trkpt lat="44.52803" lon="2.73732">
        <ele>336.617</ele>
        <time>2015-08-05T18:13:47Z</time>
      </trkpt>
      <trkpt lat="44.52773" lon="2.73856">
        <ele>340.508</ele>
        <time>2015-08-05T18:14:07Z</time>
      </trkpt>
      <trkpt lat="44.52709" lon="2.74009">
        <ele>342.314</ele>
        <time>2015-08-05T18:14:27Z</time>
      </trkpt>
      <trkpt lat="44.52666" lon="2.74062">
        <ele>348.539</ele>
        <time>2015-08-05T18:14:47Z</time>
      </trkpt>
      <trkpt lat="44.52647" lon="2.74137">
        <ele>351.479</ele>
        <time>2015-08-05T18:15:07Z</time>
      </trkpt>
      <trkpt lat="44.5253" lon="2.74283">
        <ele>355.671</ele>
        <time>2015-08-05T18:15:27Z</time>
      </trkpt>
      <trkpt lat="44.52482" lon="2.74364">
        <ele>353.813</ele>
        <time>2015-08-05T18:15:47Z</time>
      </trkpt>
      <trkpt lat="44.52446" lon="2.74569">
        <ele>356.924</ele>
        <time>2015-08-05T18:16:07Z</time>
      </trkpt>
      <trkpt lat="44.52434" lon="2.74698">
        <ele>359.36</ele>
        <time>2015-08-05T18:16:27Z</time>
      </trkpt>
      <trkpt lat="44.52393" lon="2.74864">
        <ele>358.932</ele>
        <time>2015-08-05T18:16:47Z</time>
      </trkpt>
      <trkpt lat="44.52499" lon="2.74893">
        <ele>354.987</ele>
        <time>2015-08-05T18:17:07Z</time>
      </trkpt>
      <trkpt lat="44.52631" lon="2.74991">
        <ele>350.442</ele>
        <time>2015-08-05T18:17:27Z</time>
      </trkpt>
      <trkpt lat="44.52641" lon="2.75011">
        <ele>347.226</ele>
        <time>2015-08-05T18:17:47Z</time>
      </trkpt>
      <trkpt lat="44.52642" lon="2.75038">
        <ele>343.108</ele>
        <time>2015-08-05T18:18:07Z</time>
      </trkpt>
      <trkpt lat="44.52607" lon="2.75095">
        <ele>343.034</ele>
        <time>2015-08-05T18:18:27Z</time>
      </trkpt>
      <trkpt lat="44.52577" lon="2.75153">
        <ele>342.089</ele>
        <time>2015-08-05T18:18:47Z</time>
      </trkpt>
      <trkpt lat="44.52573" lon="2.75174">
        <ele>342.159</ele>
        <time>2015-08-05T18:19:07Z</time>
      </trkpt>
      <trkpt lat="44.52663" lon="2.75227">
        <ele>332.221</ele>
        <time>2015-08-05T18:19:27Z</time>
      </trkpt>
      <trkpt lat="44.52643" lon="2.75334">
        <ele>333.033</ele>
        <time>2015-08-05T18:19:47Z</time>
      </trkpt>
      <trkpt lat="44.52606" lon="2.75472">
        <ele>332.454</ele>
        <time>2015-08-05T18:20:07Z</time>
      </trkpt>
      <trkpt lat="44.52563" lon="2.75599">
        <ele>334.76</ele>
        <time>2015-08-05T18:20:27Z</time>
      </trkpt>
      <trkpt lat="44.5253" lon="2.7568">
        <ele>333.232</ele>
        <time>2015-08-05T18:20:47Z</time>
      </trkpt>
      <trkpt lat="44.52493" lon="2.75703">
        <ele>333.315</ele>
        <time>2015-08-05T18:21:07Z</time>
      </trkpt>
      <trkpt lat="44.52576" lon="2.7578">
        <ele>334.865</ele>
        <time>2015-08-05T18:21:27Z</time>
      </trkpt>
      <trkpt lat="44.5251" lon="2.75875">
        <ele>334.211</ele>
        <time>2015-08-05T18:21:47Z</time>
      </trkpt>
      <trkpt lat="44.52471" lon="2.75922">
        <ele>334.808</ele>
        <time>2015-08-05T18:22:07Z</time>
      </trkpt>
      <trkpt lat="44.52432" lon="2.75993">
        <ele>335.027</ele>
        <time>2015-08-05T18:22:27Z</time>
      </trkpt>
      <trkpt lat="44.52402" lon="2.76023">
        <ele>334.692</ele>
        <time>2015-08-05T18:22:47Z</time>
      </trkpt>
      <trkpt lat="44.52311" lon="2.76187">
        <ele>335.662</ele>
        <time>2015-08-05T18:23:27Z</time>
      </trkpt>
      <trkpt lat="44.52244" lon="2.76286">
        <ele>342.664</ele>
        <time>2020-03-06T17:17:23Z</time>
      </trkpt>
    </trkseg>
  </trk>
</gpx>